sensor_id;sensor_type;location;lat;lon;timestamp;P1;durP1;ratioP1;P2;durP2;ratioP2
65156;SDS011;52745;49.794;18.258;2022-10-16T00:01:05;15.68;;;10.77;;
65156;SDS011;52745;49.794;18.258;2022-10-16T00:03:35;17.55;;;11.73;;
65156;SDS011;52745;49.794;18.258;2022-10-16T00:06:02;18.02;;;10.95;;
65156;SDS011;52745;49.794;18.258;2022-10-16T00:08:30;17.98;;;10.13;;
65156;SDS011;52745;49.794;18.258;2022-10-16T00:11:07;20.27;;;11.13;;
65156;SDS011;52745;49.794;18.258;2022-10-16T00:13:36;15.32;;;10.60;;
65156;SDS011;52745;49.794;18.258;2022-10-16T00:16:04;15.60;;;10.63;;
65156;SDS011;52745;49.794;18.258;2022-10-16T00:18:31;14.40;;;9.30;;
65156;SDS011;52745;49.794;18.258;2022-10-16T00:21:06;15.07;;;9.82;;
65156;SDS011;52745;49.794;18.258;2022-10-16T00:23:53;14.80;;;9.87;;
65156;SDS011;52745;49.794;18.258;2022-10-16T00:26:22;15.95;;;10.38;;
65156;SDS011;52745;49.794;18.258;2022-10-16T00:28:49;14.80;;;9.32;;
65156;SDS011;52745;49.794;18.258;2022-10-16T00:31:17;13.48;;;9.35;;
65156;SDS011;52745;49.794;18.258;2022-10-16T00:33:46;14.48;;;8.57;;
65156;SDS011;52745;49.794;18.258;2022-10-16T00:36:14;12.20;;;8.98;;
65156;SDS011;52745;49.794;18.258;2022-10-16T00:38:43;12.43;;;9.02;;
65156;SDS011;52745;49.794;18.258;2022-10-16T00:41:11;15.77;;;9.20;;
65156;SDS011;52745;49.794;18.258;2022-10-16T00:43:42;14.75;;;9.40;;
65156;SDS011;52745;49.794;18.258;2022-10-16T00:46:21;17.02;;;10.57;;
65156;SDS011;52745;49.794;18.258;2022-10-16T00:51:30;15.23;;;9.30;;
65156;SDS011;52745;49.794;18.258;2022-10-16T00:54:02;14.95;;;8.55;;
65156;SDS011;52745;49.794;18.258;2022-10-16T00:56:31;12.70;;;8.82;;
65156;SDS011;52745;49.794;18.258;2022-10-16T00:58:57;12.68;;;8.45;;
65156;SDS011;52745;49.794;18.258;2022-10-16T01:01:27;16.85;;;9.32;;
65156;SDS011;52745;49.794;18.258;2022-10-16T01:03:54;14.18;;;8.80;;
65156;SDS011;52745;49.794;18.258;2022-10-16T01:09:08;13.85;;;9.02;;
65156;SDS011;52745;49.794;18.258;2022-10-16T01:17:28;12.77;;;8.73;;
65156;SDS011;52745;49.794;18.258;2022-10-16T01:20:13;14.30;;;8.93;;
65156;SDS011;52745;49.794;18.258;2022-10-16T01:25:12;17.58;;;8.70;;
65156;SDS011;52745;49.794;18.258;2022-10-16T01:27:49;13.40;;;8.63;;
65156;SDS011;52745;49.794;18.258;2022-10-16T01:30:17;15.32;;;8.63;;
65156;SDS011;52745;49.794;18.258;2022-10-16T01:33:00;15.00;;;8.93;;
65156;SDS011;52745;49.794;18.258;2022-10-16T01:35:32;13.07;;;8.77;;
65156;SDS011;52745;49.794;18.258;2022-10-16T01:38:22;16.00;;;9.40;;
65156;SDS011;52745;49.794;18.258;2022-10-16T01:41:04;15.25;;;10.32;;
65156;SDS011;52745;49.794;18.258;2022-10-16T01:43:43;13.90;;;8.90;;
65156;SDS011;52745;49.794;18.258;2022-10-16T01:46:15;14.88;;;8.60;;
65156;SDS011;52745;49.794;18.258;2022-10-16T01:48:45;18.92;;;8.93;;
65156;SDS011;52745;49.794;18.258;2022-10-16T01:51:12;16.88;;;8.65;;
65156;SDS011;52745;49.794;18.258;2022-10-16T01:53:41;15.85;;;8.88;;
65156;SDS011;52745;49.794;18.258;2022-10-16T01:56:12;14.05;;;8.73;;
65156;SDS011;52745;49.794;18.258;2022-10-16T01:58:47;11.20;;;7.97;;
65156;SDS011;52745;49.794;18.258;2022-10-16T02:01:19;13.13;;;8.07;;
65156;SDS011;52745;49.794;18.258;2022-10-16T02:03:50;18.70;;;8.38;;
65156;SDS011;52745;49.794;18.258;2022-10-16T02:06:19;14.57;;;8.10;;
65156;SDS011;52745;49.794;18.258;2022-10-16T02:08:46;12.73;;;8.20;;
65156;SDS011;52745;49.794;18.258;2022-10-16T02:11:13;13.55;;;7.95;;
65156;SDS011;52745;49.794;18.258;2022-10-16T02:13:51;14.45;;;8.45;;
65156;SDS011;52745;49.794;18.258;2022-10-16T02:16:23;11.95;;;8.15;;
65156;SDS011;52745;49.794;18.258;2022-10-16T02:19:15;14.13;;;8.07;;
65156;SDS011;52745;49.794;18.258;2022-10-16T02:21:54;14.60;;;8.47;;
65156;SDS011;52745;49.794;18.258;2022-10-16T02:27:10;11.85;;;7.82;;
65156;SDS011;52745;49.794;18.258;2022-10-16T02:29:47;14.48;;;8.52;;
65156;SDS011;52745;49.794;18.258;2022-10-16T02:32:19;12.63;;;8.27;;
65156;SDS011;52745;49.794;18.258;2022-10-16T02:34:49;10.57;;;7.82;;
65156;SDS011;52745;49.794;18.258;2022-10-16T02:37:17;16.40;;;8.07;;
65156;SDS011;52745;49.794;18.258;2022-10-16T02:39:44;12.55;;;8.30;;
65156;SDS011;52745;49.794;18.258;2022-10-16T02:42:11;13.98;;;8.43;;
65156;SDS011;52745;49.794;18.258;2022-10-16T02:44:39;13.93;;;8.18;;
65156;SDS011;52745;49.794;18.258;2022-10-16T02:47:05;12.93;;;8.00;;
65156;SDS011;52745;49.794;18.258;2022-10-16T02:49:32;15.27;;;8.27;;
65156;SDS011;52745;49.794;18.258;2022-10-16T02:51:59;15.10;;;8.25;;
65156;SDS011;52745;49.794;18.258;2022-10-16T02:54:25;14.18;;;8.75;;
65156;SDS011;52745;49.794;18.258;2022-10-16T02:56:52;13.25;;;8.27;;
65156;SDS011;52745;49.794;18.258;2022-10-16T02:59:18;13.88;;;8.07;;
65156;SDS011;52745;49.794;18.258;2022-10-16T03:01:45;16.92;;;9.32;;
65156;SDS011;52745;49.794;18.258;2022-10-16T03:04:12;14.45;;;8.77;;
65156;SDS011;52745;49.794;18.258;2022-10-16T03:06:38;15.38;;;8.73;;
65156;SDS011;52745;49.794;18.258;2022-10-16T03:09:04;14.25;;;8.80;;
65156;SDS011;52745;49.794;18.258;2022-10-16T03:11:31;14.70;;;8.73;;
65156;SDS011;52745;49.794;18.258;2022-10-16T03:13:57;15.60;;;8.50;;
65156;SDS011;52745;49.794;18.258;2022-10-16T03:16:24;14.45;;;8.68;;
65156;SDS011;52745;49.794;18.258;2022-10-16T03:18:50;15.25;;;8.98;;
65156;SDS011;52745;49.794;18.258;2022-10-16T03:21:17;15.40;;;9.50;;
65156;SDS011;52745;49.794;18.258;2022-10-16T03:23:43;14.95;;;9.30;;
65156;SDS011;52745;49.794;18.258;2022-10-16T03:26:10;16.27;;;9.25;;
65156;SDS011;52745;49.794;18.258;2022-10-16T03:28:36;16.02;;;9.35;;
65156;SDS011;52745;49.794;18.258;2022-10-16T03:31:03;13.93;;;8.00;;
65156;SDS011;52745;49.794;18.258;2022-10-16T03:33:29;17.05;;;8.65;;
65156;SDS011;52745;49.794;18.258;2022-10-16T03:35:55;14.43;;;9.05;;
65156;SDS011;52745;49.794;18.258;2022-10-16T03:38:22;14.15;;;8.95;;
65156;SDS011;52745;49.794;18.258;2022-10-16T03:40:48;32.28;;;19.63;;
65156;SDS011;52745;49.794;18.258;2022-10-16T03:43:15;25.73;;;16.05;;
65156;SDS011;52745;49.794;18.258;2022-10-16T03:45:42;17.23;;;9.13;;
65156;SDS011;52745;49.794;18.258;2022-10-16T03:48:10;17.67;;;9.20;;
65156;SDS011;52745;49.794;18.258;2022-10-16T03:50:37;14.23;;;9.38;;
65156;SDS011;52745;49.794;18.258;2022-10-16T03:53:03;16.02;;;9.20;;
65156;SDS011;52745;49.794;18.258;2022-10-16T03:55:30;15.48;;;8.52;;
65156;SDS011;52745;49.794;18.258;2022-10-16T03:57:56;16.25;;;9.18;;
65156;SDS011;52745;49.794;18.258;2022-10-16T04:00:23;15.60;;;8.93;;
65156;SDS011;52745;49.794;18.258;2022-10-16T04:02:49;15.18;;;9.27;;
65156;SDS011;52745;49.794;18.258;2022-10-16T04:05:16;14.90;;;9.02;;
65156;SDS011;52745;49.794;18.258;2022-10-16T04:07:42;14.90;;;9.25;;
65156;SDS011;52745;49.794;18.258;2022-10-16T04:10:09;14.45;;;8.82;;
65156;SDS011;52745;49.794;18.258;2022-10-16T04:12:35;17.00;;;9.20;;
65156;SDS011;52745;49.794;18.258;2022-10-16T04:15:02;15.13;;;8.88;;
65156;SDS011;52745;49.794;18.258;2022-10-16T04:17:29;16.73;;;10.27;;
65156;SDS011;52745;49.794;18.258;2022-10-16T04:19:55;14.80;;;9.70;;
65156;SDS011;52745;49.794;18.258;2022-10-16T04:22:22;15.45;;;9.32;;
65156;SDS011;52745;49.794;18.258;2022-10-16T04:24:48;19.08;;;9.52;;
65156;SDS011;52745;49.794;18.258;2022-10-16T04:27:15;17.42;;;9.73;;
65156;SDS011;52745;49.794;18.258;2022-10-16T04:29:41;14.90;;;9.25;;
65156;SDS011;52745;49.794;18.258;2022-10-16T04:32:11;14.77;;;8.98;;
65156;SDS011;52745;49.794;18.258;2022-10-16T04:34:38;13.95;;;8.95;;
65156;SDS011;52745;49.794;18.258;2022-10-16T04:37:05;15.30;;;9.18;;
65156;SDS011;52745;49.794;18.258;2022-10-16T04:39:32;17.67;;;8.98;;
65156;SDS011;52745;49.794;18.258;2022-10-16T04:41:59;16.88;;;9.70;;
65156;SDS011;52745;49.794;18.258;2022-10-16T04:44:25;15.35;;;9.05;;
65156;SDS011;52745;49.794;18.258;2022-10-16T04:46:52;16.17;;;9.18;;
65156;SDS011;52745;49.794;18.258;2022-10-16T04:49:18;14.95;;;9.25;;
65156;SDS011;52745;49.794;18.258;2022-10-16T04:51:45;15.30;;;9.07;;
65156;SDS011;52745;49.794;18.258;2022-10-16T04:54:11;15.23;;;8.80;;
65156;SDS011;52745;49.794;18.258;2022-10-16T04:56:38;14.32;;;9.50;;
65156;SDS011;52745;49.794;18.258;2022-10-16T04:59:13;13.80;;;9.02;;
65156;SDS011;52745;49.794;18.258;2022-10-16T05:01:40;13.45;;;8.93;;
65156;SDS011;52745;49.794;18.258;2022-10-16T05:04:07;13.88;;;8.70;;
65156;SDS011;52745;49.794;18.258;2022-10-16T05:06:34;17.42;;;9.23;;
65156;SDS011;52745;49.794;18.258;2022-10-16T05:09:00;14.38;;;8.88;;
65156;SDS011;52745;49.794;18.258;2022-10-16T05:11:27;17.20;;;8.90;;
65156;SDS011;52745;49.794;18.258;2022-10-16T05:13:53;13.38;;;8.15;;
65156;SDS011;52745;49.794;18.258;2022-10-16T05:16:20;16.13;;;8.90;;
65156;SDS011;52745;49.794;18.258;2022-10-16T05:18:46;15.98;;;8.63;;
65156;SDS011;52745;49.794;18.258;2022-10-16T05:21:13;18.05;;;8.25;;
65156;SDS011;52745;49.794;18.258;2022-10-16T05:23:39;15.65;;;9.02;;
65156;SDS011;52745;49.794;18.258;2022-10-16T05:26:06;16.67;;;9.77;;
65156;SDS011;52745;49.794;18.258;2022-10-16T05:28:32;16.38;;;9.55;;
65156;SDS011;52745;49.794;18.258;2022-10-16T05:30:59;14.60;;;8.82;;
65156;SDS011;52745;49.794;18.258;2022-10-16T05:33:30;16.77;;;9.40;;
65156;SDS011;52745;49.794;18.258;2022-10-16T05:35:57;17.30;;;9.55;;
65156;SDS011;52745;49.794;18.258;2022-10-16T05:38:27;19.80;;;9.00;;
65156;SDS011;52745;49.794;18.258;2022-10-16T05:40:54;16.25;;;9.63;;
65156;SDS011;52745;49.794;18.258;2022-10-16T05:43:20;14.57;;;8.57;;
65156;SDS011;52745;49.794;18.258;2022-10-16T05:46:00;15.20;;;8.80;;
65156;SDS011;52745;49.794;18.258;2022-10-16T05:48:29;14.50;;;9.63;;
65156;SDS011;52745;49.794;18.258;2022-10-16T05:51:04;15.55;;;8.55;;
65156;SDS011;52745;49.794;18.258;2022-10-16T05:53:33;13.52;;;9.00;;
65156;SDS011;52745;49.794;18.258;2022-10-16T05:56:02;20.05;;;11.38;;
65156;SDS011;52745;49.794;18.258;2022-10-16T05:58:30;13.48;;;8.02;;
65156;SDS011;52745;49.794;18.258;2022-10-16T06:01:05;16.88;;;9.38;;
65156;SDS011;52745;49.794;18.258;2022-10-16T06:03:33;17.55;;;8.45;;
65156;SDS011;52745;49.794;18.258;2022-10-16T06:06:22;13.38;;;8.27;;
65156;SDS011;52745;49.794;18.258;2022-10-16T06:08:48;17.58;;;7.97;;
65156;SDS011;52745;49.794;18.258;2022-10-16T06:11:20;13.63;;;8.10;;
65156;SDS011;52745;49.794;18.258;2022-10-16T06:13:52;15.60;;;8.13;;
65156;SDS011;52745;49.794;18.258;2022-10-16T06:16:20;10.80;;;7.32;;
65156;SDS011;52745;49.794;18.258;2022-10-16T06:18:46;14.35;;;8.07;;
65156;SDS011;52745;49.794;18.258;2022-10-16T06:21:15;13.43;;;7.72;;
65156;SDS011;52745;49.794;18.258;2022-10-16T06:23:43;10.85;;;7.53;;
65156;SDS011;52745;49.794;18.258;2022-10-16T06:26:13;19.52;;;10.63;;
65156;SDS011;52745;49.794;18.258;2022-10-16T06:28:41;13.57;;;7.90;;
65156;SDS011;52745;49.794;18.258;2022-10-16T06:31:08;15.70;;;8.02;;
65156;SDS011;52745;49.794;18.258;2022-10-16T06:33:36;11.35;;;7.32;;
65156;SDS011;52745;49.794;18.258;2022-10-16T06:36:08;12.38;;;7.63;;
65156;SDS011;52745;49.794;18.258;2022-10-16T06:38:37;18.75;;;11.80;;
65156;SDS011;52745;49.794;18.258;2022-10-16T06:41:04;12.10;;;8.27;;
65156;SDS011;52745;49.794;18.258;2022-10-16T06:43:32;13.43;;;7.95;;
65156;SDS011;52745;49.794;18.258;2022-10-16T06:45:59;13.85;;;7.90;;
65156;SDS011;52745;49.794;18.258;2022-10-16T06:48:26;11.55;;;7.38;;
65156;SDS011;52745;49.794;18.258;2022-10-16T06:51:01;12.95;;;8.02;;
65156;SDS011;52745;49.794;18.258;2022-10-16T06:53:30;14.98;;;7.90;;
65156;SDS011;52745;49.794;18.258;2022-10-16T06:56:12;13.27;;;8.10;;
65156;SDS011;52745;49.794;18.258;2022-10-16T06:58:41;13.50;;;8.32;;
65156;SDS011;52745;49.794;18.258;2022-10-16T07:01:09;15.40;;;7.93;;
65156;SDS011;52745;49.794;18.258;2022-10-16T07:03:36;13.85;;;8.55;;
65156;SDS011;52745;49.794;18.258;2022-10-16T07:06:05;15.00;;;8.00;;
65156;SDS011;52745;49.794;18.258;2022-10-16T07:08:33;14.82;;;7.72;;
65156;SDS011;52745;49.794;18.258;2022-10-16T07:11:02;12.95;;;7.57;;
65156;SDS011;52745;49.794;18.258;2022-10-16T07:13:35;11.35;;;7.10;;
65156;SDS011;52745;49.794;18.258;2022-10-16T07:16:12;12.10;;;7.43;;
65156;SDS011;52745;49.794;18.258;2022-10-16T07:18:46;13.10;;;7.77;;
65156;SDS011;52745;49.794;18.258;2022-10-16T07:21:21;13.88;;;8.00;;
65156;SDS011;52745;49.794;18.258;2022-10-16T07:26:19;12.07;;;8.02;;
65156;SDS011;52745;49.794;18.258;2022-10-16T07:28:46;14.77;;;8.18;;
65156;SDS011;52745;49.794;18.258;2022-10-16T07:31:13;16.20;;;8.32;;
65156;SDS011;52745;49.794;18.258;2022-10-16T07:33:41;12.32;;;8.32;;
65156;SDS011;52745;49.794;18.258;2022-10-16T07:36:11;15.00;;;8.10;;
65156;SDS011;52745;49.794;18.258;2022-10-16T07:38:38;12.55;;;7.25;;
65156;SDS011;52745;49.794;18.258;2022-10-16T07:41:06;15.57;;;7.72;;
65156;SDS011;52745;49.794;18.258;2022-10-16T07:43:35;19.50;;;10.48;;
65156;SDS011;52745;49.794;18.258;2022-10-16T07:46:02;12.50;;;8.07;;
65156;SDS011;52745;49.794;18.258;2022-10-16T07:48:32;11.80;;;8.07;;
65156;SDS011;52745;49.794;18.258;2022-10-16T07:51:01;12.48;;;8.40;;
65156;SDS011;52745;49.794;18.258;2022-10-16T07:53:29;17.92;;;8.55;;
65156;SDS011;52745;49.794;18.258;2022-10-16T07:55:57;15.10;;;8.82;;
65156;SDS011;52745;49.794;18.258;2022-10-16T07:58:27;19.10;;;12.55;;
65156;SDS011;52745;49.794;18.258;2022-10-16T08:00:55;11.60;;;8.07;;
65156;SDS011;52745;49.794;18.258;2022-10-16T08:03:22;16.15;;;9.18;;
65156;SDS011;52745;49.794;18.258;2022-10-16T08:05:49;16.67;;;10.18;;
65156;SDS011;52745;49.794;18.258;2022-10-16T08:08:17;13.70;;;8.05;;
65156;SDS011;52745;49.794;18.258;2022-10-16T08:10:44;14.13;;;8.23;;
65156;SDS011;52745;49.794;18.258;2022-10-16T08:13:11;13.02;;;7.30;;
65156;SDS011;52745;49.794;18.258;2022-10-16T08:15:41;11.82;;;7.25;;
65156;SDS011;52745;49.794;18.258;2022-10-16T08:18:09;10.43;;;6.78;;
65156;SDS011;52745;49.794;18.258;2022-10-16T08:20:36;14.00;;;6.95;;
65156;SDS011;52745;49.794;18.258;2022-10-16T08:23:03;17.70;;;7.18;;
65156;SDS011;52745;49.794;18.258;2022-10-16T08:25:30;10.98;;;7.43;;
65156;SDS011;52745;49.794;18.258;2022-10-16T08:27:56;15.18;;;7.65;;
65156;SDS011;52745;49.794;18.258;2022-10-16T08:30:23;11.38;;;6.75;;
65156;SDS011;52745;49.794;18.258;2022-10-16T08:32:50;11.20;;;7.05;;
65156;SDS011;52745;49.794;18.258;2022-10-16T08:35:17;13.90;;;7.00;;
65156;SDS011;52745;49.794;18.258;2022-10-16T08:37:43;14.93;;;7.55;;
65156;SDS011;52745;49.794;18.258;2022-10-16T08:40:16;13.45;;;7.93;;
65156;SDS011;52745;49.794;18.258;2022-10-16T08:42:56;12.90;;;7.55;;
65156;SDS011;52745;49.794;18.258;2022-10-16T08:45:43;11.40;;;7.38;;
65156;SDS011;52745;49.794;18.258;2022-10-16T08:51:00;16.75;;;7.32;;
65156;SDS011;52745;49.794;18.258;2022-10-16T08:53:36;13.80;;;7.57;;
65156;SDS011;52745;49.794;18.258;2022-10-16T08:56:19;12.90;;;7.55;;
65156;SDS011;52745;49.794;18.258;2022-10-16T08:58:46;10.48;;;7.43;;
65156;SDS011;52745;49.794;18.258;2022-10-16T09:01:15;11.90;;;6.97;;
65156;SDS011;52745;49.794;18.258;2022-10-16T09:06:23;12.27;;;7.47;;
65156;SDS011;52745;49.794;18.258;2022-10-16T09:16:54;10.90;;;6.75;;
65156;SDS011;52745;49.794;18.258;2022-10-16T09:19:35;10.48;;;7.18;;
65156;SDS011;52745;49.794;18.258;2022-10-16T09:22:11;11.20;;;6.55;;
65156;SDS011;52745;49.794;18.258;2022-10-16T09:24:40;11.48;;;7.00;;
65156;SDS011;52745;49.794;18.258;2022-10-16T09:27:11;11.38;;;6.80;;
65156;SDS011;52745;49.794;18.258;2022-10-16T09:29:40;10.52;;;6.40;;
65156;SDS011;52745;49.794;18.258;2022-10-16T09:32:11;11.68;;;6.43;;
65156;SDS011;52745;49.794;18.258;2022-10-16T09:34:58;9.75;;;6.72;;
65156;SDS011;52745;49.794;18.258;2022-10-16T09:37:24;9.23;;;6.30;;
65156;SDS011;52745;49.794;18.258;2022-10-16T09:39:52;12.73;;;6.88;;
65156;SDS011;52745;49.794;18.258;2022-10-16T09:42:21;8.32;;;6.60;;
65156;SDS011;52745;49.794;18.258;2022-10-16T09:44:53;11.07;;;6.38;;
65156;SDS011;52745;49.794;18.258;2022-10-16T09:47:23;10.50;;;6.70;;
65156;SDS011;52745;49.794;18.258;2022-10-16T09:49:59;12.93;;;7.05;;
65156;SDS011;52745;49.794;18.258;2022-10-16T09:52:30;9.77;;;6.07;;
65156;SDS011;52745;49.794;18.258;2022-10-16T09:54:59;9.93;;;5.97;;
65156;SDS011;52745;49.794;18.258;2022-10-16T09:57:52;10.23;;;6.15;;
65156;SDS011;52745;49.794;18.258;2022-10-16T10:00:20;13.75;;;6.88;;
65156;SDS011;52745;49.794;18.258;2022-10-16T10:02:48;10.07;;;6.40;;
65156;SDS011;52745;49.794;18.258;2022-10-16T10:05:22;8.57;;;6.25;;
65156;SDS011;52745;49.794;18.258;2022-10-16T10:07:58;8.82;;;6.35;;
65156;SDS011;52745;49.794;18.258;2022-10-16T10:10:27;11.90;;;6.72;;
65156;SDS011;52745;49.794;18.258;2022-10-16T10:12:55;10.48;;;6.40;;
65156;SDS011;52745;49.794;18.258;2022-10-16T10:15:23;12.23;;;6.50;;
65156;SDS011;52745;49.794;18.258;2022-10-16T10:17:51;12.80;;;7.05;;
65156;SDS011;52745;49.794;18.258;2022-10-16T10:20:26;12.20;;;6.88;;
65156;SDS011;52745;49.794;18.258;2022-10-16T10:22:55;10.27;;;6.88;;
65156;SDS011;52745;49.794;18.258;2022-10-16T10:25:25;10.70;;;6.25;;
65156;SDS011;52745;49.794;18.258;2022-10-16T10:31:12;10.13;;;6.28;;
65156;SDS011;52745;49.794;18.258;2022-10-16T10:33:54;7.80;;;5.78;;
65156;SDS011;52745;49.794;18.258;2022-10-16T10:56:26;7.25;;;5.70;;
65156;SDS011;52745;49.794;18.258;2022-10-16T11:07:04;10.65;;;5.70;;
65156;SDS011;52745;49.794;18.258;2022-10-16T11:09:46;7.43;;;5.85;;
65156;SDS011;52745;49.794;18.258;2022-10-16T11:14:54;11.45;;;6.00;;
65156;SDS011;52745;49.794;18.258;2022-10-16T11:17:50;10.48;;;6.63;;
65156;SDS011;52745;49.794;18.258;2022-10-16T11:20:28;8.75;;;6.25;;
65156;SDS011;52745;49.794;18.258;2022-10-16T11:25:47;8.05;;;5.72;;
65156;SDS011;52745;49.794;18.258;2022-10-16T11:28:23;10.23;;;6.38;;
65156;SDS011;52745;49.794;18.258;2022-10-16T11:31:00;9.45;;;6.22;;
65156;SDS011;52745;49.794;18.258;2022-10-16T11:33:39;8.05;;;5.85;;
65156;SDS011;52745;49.794;18.258;2022-10-16T11:36:32;14.32;;;6.60;;
65156;SDS011;52745;49.794;18.258;2022-10-16T11:44:38;13.32;;;7.10;;
65156;SDS011;52745;49.794;18.258;2022-10-16T11:50:06;11.50;;;6.75;;
65156;SDS011;52745;49.794;18.258;2022-10-16T11:55:25;9.85;;;7.45;;
65156;SDS011;52745;49.794;18.258;2022-10-16T12:03:26;9.23;;;6.72;;
65156;SDS011;52745;49.794;18.258;2022-10-16T12:08:47;8.75;;;6.75;;
65156;SDS011;52745;49.794;18.258;2022-10-16T12:11:30;11.52;;;6.72;;
65156;SDS011;52745;49.794;18.258;2022-10-16T12:16:50;8.38;;;6.57;;
65156;SDS011;52745;49.794;18.258;2022-10-16T12:19:26;12.68;;;7.30;;
65156;SDS011;52745;49.794;18.258;2022-10-16T12:21:58;10.90;;;7.18;;
65156;SDS011;52745;49.794;18.258;2022-10-16T12:26:58;9.52;;;7.10;;
65156;SDS011;52745;49.794;18.258;2022-10-16T12:32:05;10.90;;;7.00;;
65156;SDS011;52745;49.794;18.258;2022-10-16T12:34:50;11.07;;;7.03;;
65156;SDS011;52745;49.794;18.258;2022-10-16T12:37:37;10.48;;;7.10;;
65156;SDS011;52745;49.794;18.258;2022-10-16T12:40:39;9.50;;;7.10;;
65156;SDS011;52745;49.794;18.258;2022-10-16T12:45:37;11.40;;;7.10;;
65156;SDS011;52745;49.794;18.258;2022-10-16T12:48:04;9.98;;;7.45;;
65156;SDS011;52745;49.794;18.258;2022-10-16T12:50:46;13.27;;;7.82;;
65156;SDS011;52745;49.794;18.258;2022-10-16T12:53:25;10.63;;;7.57;;
65156;SDS011;52745;49.794;18.258;2022-10-16T12:58:52;17.15;;;10.10;;
65156;SDS011;52745;49.794;18.258;2022-10-16T13:10:25;11.85;;;8.43;;
65156;SDS011;52745;49.794;18.258;2022-10-16T13:21:20;9.80;;;7.38;;
65156;SDS011;52745;49.794;18.258;2022-10-16T13:24:11;13.27;;;7.78;;
65156;SDS011;52745;49.794;18.258;2022-10-16T13:26:55;14.55;;;7.75;;
65156;SDS011;52745;49.794;18.258;2022-10-16T13:29:29;15.32;;;7.80;;
65156;SDS011;52745;49.794;18.258;2022-10-16T13:31:58;13.30;;;7.70;;
65156;SDS011;52745;49.794;18.258;2022-10-16T13:34:26;10.93;;;7.28;;
65156;SDS011;52745;49.794;18.258;2022-10-16T13:36:53;11.05;;;7.63;;
65156;SDS011;52745;49.794;18.258;2022-10-16T13:42:09;13.65;;;7.78;;
65156;SDS011;52745;49.794;18.258;2022-10-16T13:44:45;12.73;;;7.47;;
65156;SDS011;52745;49.794;18.258;2022-10-16T13:47:19;12.93;;;8.02;;
65156;SDS011;52745;49.794;18.258;2022-10-16T13:50:00;10.45;;;7.60;;
65156;SDS011;52745;49.794;18.258;2022-10-16T13:52:27;12.27;;;7.97;;
65156;SDS011;52745;49.794;18.258;2022-10-16T13:54:54;11.88;;;7.82;;
65156;SDS011;52745;49.794;18.258;2022-10-16T13:57:21;10.93;;;7.60;;
65156;SDS011;52745;49.794;18.258;2022-10-16T13:59:50;12.27;;;7.80;;
65156;SDS011;52745;49.794;18.258;2022-10-16T14:04:55;9.45;;;7.03;;
65156;SDS011;52745;49.794;18.258;2022-10-16T14:07:24;10.60;;;7.40;;
65156;SDS011;52745;49.794;18.258;2022-10-16T14:09:54;9.82;;;7.97;;
65156;SDS011;52745;49.794;18.258;2022-10-16T14:12:22;11.35;;;7.57;;
65156;SDS011;52745;49.794;18.258;2022-10-16T14:14:50;11.07;;;7.45;;
65156;SDS011;52745;49.794;18.258;2022-10-16T14:17:20;13.93;;;8.23;;
65156;SDS011;52745;49.794;18.258;2022-10-16T14:19:51;12.45;;;7.65;;
65156;SDS011;52745;49.794;18.258;2022-10-16T14:22:26;14.75;;;8.18;;
65156;SDS011;52745;49.794;18.258;2022-10-16T14:24:57;10.25;;;7.05;;
65156;SDS011;52745;49.794;18.258;2022-10-16T14:32:39;10.45;;;7.28;;
65156;SDS011;52745;49.794;18.258;2022-10-16T14:35:23;12.15;;;7.45;;
65156;SDS011;52745;49.794;18.258;2022-10-16T14:38:00;12.38;;;8.15;;
65156;SDS011;52745;49.794;18.258;2022-10-16T14:40:29;11.73;;;7.40;;
65156;SDS011;52745;49.794;18.258;2022-10-16T14:43:01;13.13;;;7.53;;
65156;SDS011;52745;49.794;18.258;2022-10-16T14:45:30;11.40;;;7.03;;
65156;SDS011;52745;49.794;18.258;2022-10-16T14:48:01;12.63;;;7.75;;
65156;SDS011;52745;49.794;18.258;2022-10-16T14:50:32;10.90;;;7.22;;
65156;SDS011;52745;49.794;18.258;2022-10-16T14:52:58;13.80;;;7.40;;
65156;SDS011;52745;49.794;18.258;2022-10-16T14:55:25;11.88;;;7.28;;
65156;SDS011;52745;49.794;18.258;2022-10-16T14:57:51;10.30;;;7.88;;
65156;SDS011;52745;49.794;18.258;2022-10-16T15:00:22;12.98;;;7.57;;
65156;SDS011;52745;49.794;18.258;2022-10-16T15:02:50;11.40;;;7.75;;
65156;SDS011;52745;49.794;18.258;2022-10-16T15:07:46;10.93;;;7.78;;
65156;SDS011;52745;49.794;18.258;2022-10-16T15:10:13;14.13;;;8.55;;
65156;SDS011;52745;49.794;18.258;2022-10-16T15:12:40;13.85;;;8.15;;
65156;SDS011;52745;49.794;18.258;2022-10-16T15:17:49;13.18;;;8.10;;
65156;SDS011;52745;49.794;18.258;2022-10-16T15:20:19;18.38;;;8.93;;
65156;SDS011;52745;49.794;18.258;2022-10-16T15:22:46;12.93;;;8.30;;
65156;SDS011;52745;49.794;18.258;2022-10-16T15:25:32;15.90;;;8.30;;
65156;SDS011;52745;49.794;18.258;2022-10-16T15:28:02;11.25;;;7.97;;
65156;SDS011;52745;49.794;18.258;2022-10-16T15:30:30;12.70;;;8.10;;
65156;SDS011;52745;49.794;18.258;2022-10-16T15:32:56;11.55;;;8.63;;
65156;SDS011;52745;49.794;18.258;2022-10-16T15:35:23;13.57;;;9.45;;
65156;SDS011;52745;49.794;18.258;2022-10-16T15:37:49;14.55;;;9.00;;
65156;SDS011;52745;49.794;18.258;2022-10-16T15:40:17;15.90;;;8.23;;
65156;SDS011;52745;49.794;18.258;2022-10-16T15:42:45;13.35;;;8.82;;
65156;SDS011;52745;49.794;18.258;2022-10-16T15:45:12;12.38;;;8.68;;
65156;SDS011;52745;49.794;18.258;2022-10-16T15:47:40;13.65;;;9.00;;
65156;SDS011;52745;49.794;18.258;2022-10-16T15:50:11;18.52;;;8.95;;
65156;SDS011;52745;49.794;18.258;2022-10-16T15:52:39;15.48;;;8.45;;
65156;SDS011;52745;49.794;18.258;2022-10-16T15:55:07;15.88;;;9.13;;
65156;SDS011;52745;49.794;18.258;2022-10-16T15:57:35;13.00;;;8.43;;
65156;SDS011;52745;49.794;18.258;2022-10-16T16:00:08;12.93;;;8.75;;
65156;SDS011;52745;49.794;18.258;2022-10-16T16:02:38;12.45;;;8.27;;
65156;SDS011;52745;49.794;18.258;2022-10-16T16:05:05;18.83;;;9.10;;
65156;SDS011;52745;49.794;18.258;2022-10-16T16:07:34;12.90;;;8.43;;
65156;SDS011;52745;49.794;18.258;2022-10-16T16:10:03;13.60;;;8.70;;
65156;SDS011;52745;49.794;18.258;2022-10-16T16:12:32;14.32;;;8.43;;
65156;SDS011;52745;49.794;18.258;2022-10-16T16:14:59;14.07;;;8.93;;
65156;SDS011;52745;49.794;18.258;2022-10-16T16:17:26;12.13;;;7.97;;
65156;SDS011;52745;49.794;18.258;2022-10-16T16:19:52;12.40;;;8.70;;
65156;SDS011;52745;49.794;18.258;2022-10-16T16:22:19;16.15;;;8.38;;
65156;SDS011;52745;49.794;18.258;2022-10-16T16:24:45;14.02;;;8.88;;
65156;SDS011;52745;49.794;18.258;2022-10-16T16:27:12;16.35;;;9.57;;
65156;SDS011;52745;49.794;18.258;2022-10-16T16:29:39;16.92;;;10.02;;
65156;SDS011;52745;49.794;18.258;2022-10-16T16:32:06;14.48;;;10.10;;
65156;SDS011;52745;49.794;18.258;2022-10-16T16:34:32;15.82;;;9.18;;
65156;SDS011;52745;49.794;18.258;2022-10-16T16:36:59;13.65;;;8.68;;
65156;SDS011;52745;49.794;18.258;2022-10-16T16:39:26;22.17;;;10.50;;
65156;SDS011;52745;49.794;18.258;2022-10-16T16:41:52;17.75;;;10.63;;
65156;SDS011;52745;49.794;18.258;2022-10-16T16:44:19;15.48;;;9.82;;
65156;SDS011;52745;49.794;18.258;2022-10-16T16:46:45;14.60;;;9.25;;
65156;SDS011;52745;49.794;18.258;2022-10-16T16:49:12;13.13;;;8.55;;
65156;SDS011;52745;49.794;18.258;2022-10-16T16:51:41;19.13;;;9.63;;
65156;SDS011;52745;49.794;18.258;2022-10-16T16:54:09;22.80;;;9.15;;